Time;durP1;ratioP1;P1;durP2;ratioP2;P2;SDS_P1;SDS_P2;PMS_P1;PMS_P2;Temp;Humidity;BMP_temperature;BMP_pressure;BME280_temperature;BME280_humidity;BME280_pressure;Samples;Min_cycle;Max_cycle;Signal;HPM_P1;HPM_P2
2022/06/06 00:01:54;;;;;;;8.68;3.47;;;18.00;99.90;;;;;;4935015;29;20019;-75
2022/06/06 00:04:21;;;;;;;6.57;3.13;;;18.00;99.90;;;;;;4928445;29;20040;-74
2022/06/06 00:06:47;;;;;;;8.00;3.85;;;18.00;99.90;;;;;;4933634;29;20035;-75
2022/06/06 00:09:15;;;;;;;8.52;3.70;;;18.00;99.90;;;;;;4933735;29;20492;-75
2022/06/06 00:11:42;;;;;;;5.28;3.22;;;18.10;99.90;;;;;;4934927;29;20038;-74
2022/06/06 00:14:09;;;;;;;6.22;3.30;;;18.20;99.90;;;;;;4934027;29;20476;-74
2022/06/06 00:16:35;;;;;;;8.90;3.63;;;18.20;99.90;;;;;;4933454;29;20034;-74
2022/06/06 00:19:03;;;;;;;5.57;3.30;;;18.20;99.90;;;;;;4932926;29;20036;-75
2022/06/06 00:21:30;;;;;;;7.85;3.50;;;18.20;99.90;;;;;;4938695;29;20044;-75
2022/06/06 00:23:59;;;;;;;7.43;3.63;;;18.20;99.90;;;;;;4936266;29;20028;-75
2022/06/06 00:26:26;;;;;;;8.40;3.33;;;18.20;99.90;;;;;;4938687;29;20031;-75
2022/06/06 00:28:53;;;;;;;8.05;4.20;;;18.10;99.90;;;;;;4938673;29;20510;-75
2022/06/06 00:36:47;;;;;;;8.02;3.92;;;18.00;99.90;;;;;;4938525;29;20023;-74
2022/06/06 00:39:15;;;;;;;14.10;3.65;;;17.90;99.90;;;;;;4925529;29;20457;-74
2022/06/06 00:41:45;;;;;;;9.07;3.58;;;17.90;99.90;;;;;;4933529;29;20094;-74
2022/06/06 00:44:18;;;;;;;5.97;3.53;;;17.80;99.90;;;;;;4919626;29;20040;-75
2022/06/06 00:47:08;;;;;;;7.15;3.42;;;17.80;99.90;;;;;;4930804;29;20028;-75
2022/06/06 00:49:41;;;;;;;11.25;3.75;;;17.90;99.90;;;;;;4937646;29;20034;-75
2022/06/06 00:52:12;;;;;;;8.48;4.68;;;17.90;99.90;;;;;;4937514;29;20036;-75
2022/06/06 00:54:40;;;;;;;11.20;3.97;;;17.80;99.90;;;;;;4938274;29;20039;-75
2022/06/06 00:57:13;;;;;;;6.20;3.42;;;17.80;99.90;;;;;;4938227;29;20023;-74
2022/06/06 00:59:40;;;;;;;9.07;3.50;;;17.80;99.90;;;;;;4938222;29;20332;-75
2022/06/06 01:02:09;;;;;;;9.65;3.67;;;17.80;99.90;;;;;;4936351;29;20398;-74
2022/06/06 01:04:34;;;;;;;6.78;3.72;;;17.80;99.90;;;;;;4938169;29;20547;-74
2022/06/06 01:07:00;;;;;;;7.15;3.75;;;17.80;99.90;;;;;;4937668;29;20032;-74
2022/06/06 01:09:26;;;;;;;4.95;3.30;;;17.70;99.90;;;;;;4937754;29;20054;-74
2022/06/06 01:12:00;;;;;;;5.68;3.40;;;17.70;99.90;;;;;;4938195;29;20024;-75
2022/06/06 01:14:31;;;;;;;5.90;3.78;;;17.70;99.90;;;;;;4937826;29;20040;-74
2022/06/06 01:17:02;;;;;;;8.57;4.03;;;17.70;99.90;;;;;;4931023;29;20036;-75
2022/06/06 01:19:40;;;;;;;5.82;3.80;;;17.70;99.90;;;;;;4935311;29;20031;-75
2022/06/06 01:22:33;;;;;;;7.80;3.33;;;17.60;99.90;;;;;;4937397;29;20090;-75
2022/06/06 01:25:17;;;;;;;11.50;3.92;;;17.50;99.90;;;;;;4937699;29;20032;-74
2022/06/06 01:27:56;;;;;;;5.38;3.47;;;17.50;99.90;;;;;;4935346;29;20038;-75
2022/06/06 01:30:43;;;;;;;6.78;3.50;;;17.40;99.90;;;;;;4937570;29;20067;-74
2022/06/06 01:33:14;;;;;;;7.82;3.60;;;17.50;99.90;;;;;;4936237;29;20388;-75
2022/06/06 01:35:45;;;;;;;6.85;3.40;;;17.50;99.90;;;;;;4937290;29;20035;-74
2022/06/06 01:38:15;;;;;;;8.30;3.33;;;17.50;99.90;;;;;;4937395;29;20035;-74
2022/06/06 01:41:07;;;;;;;6.03;3.33;;;17.50;99.90;;;;;;4937266;29;20028;-75
2022/06/06 01:44:06;;;;;;;6.03;3.55;;;17.40;99.90;;;;;;4936013;29;20535;-74
2022/06/06 01:46:36;;;;;;;9.80;4.47;;;17.40;99.90;;;;;;4913075;29;20048;-74
2022/06/06 01:49:03;;;;;;;6.70;3.78;;;17.40;99.90;;;;;;4916946;29;20032;-74
2022/06/06 01:51:31;;;;;;;7.45;4.57;;;17.50;99.90;;;;;;4918516;29;20063;-74
2022/06/06 01:53:57;;;;;;;8.95;4.25;;;17.50;99.90;;;;;;4918347;29;20107;-74
2022/06/06 01:56:29;;;;;;;11.63;4.03;;;17.50;99.90;;;;;;4918962;29;20055;-75
2022/06/06 01:58:55;;;;;;;6.50;3.67;;;17.40;99.90;;;;;;4918186;29;20064;-75
2022/06/06 02:01:21;;;;;;;8.70;3.90;;;17.40;99.90;;;;;;4917968;29;20028;-74
2022/06/06 02:03:47;;;;;;;8.57;4.35;;;17.40;99.90;;;;;;4917856;29;20035;-74
2022/06/06 02:06:13;;;;;;;6.35;3.75;;;17.20;99.90;;;;;;4917499;29;20098;-75
2022/06/06 02:08:39;;;;;;;6.80;4.18;;;17.10;99.90;;;;;;4917921;29;20024;-74
2022/06/06 02:11:05;;;;;;;11.50;4.70;;;17.10;99.90;;;;;;4918165;29;20100;-74
2022/06/06 02:13:31;;;;;;;9.35;4.00;;;17.10;99.90;;;;;;4917669;29;20463;-74
2022/06/06 02:15:57;;;;;;;4.47;3.40;;;17.10;99.90;;;;;;4917803;29;20024;-74
2022/06/06 02:18:23;;;;;;;8.00;4.07;;;17.20;99.90;;;;;;4925601;29;20024;-74
2022/06/06 02:20:49;;;;;;;9.52;3.60;;;17.20;99.90;;;;;;4935682;29;20853;-75
2022/06/06 02:23:15;;;;;;;5.40;3.42;;;17.20;99.90;;;;;;4936721;29;20047;-74
2022/06/06 02:25:41;;;;;;;9.57;4.03;;;17.10;99.90;;;;;;4936596;29;20031;-74
2022/06/06 02:28:07;;;;;;;7.72;4.38;;;17.20;99.90;;;;;;4936289;29;20047;-74
2022/06/06 02:30:34;;;;;;;9.85;4.10;;;17.20;99.90;;;;;;4934868;29;20065;-74
2022/06/06 02:33:01;;;;;;;9.88;4.00;;;17.10;99.90;;;;;;4936398;29;20032;-74
2022/06/06 02:35:30;;;;;;;5.50;3.78;;;17.10;99.90;;;;;;4935689;29;20479;-74
2022/06/06 02:37:56;;;;;;;8.25;4.30;;;17.10;99.90;;;;;;4936342;29;20027;-74
2022/06/06 02:40:24;;;;;;;9.35;3.80;;;17.10;99.90;;;;;;4935967;29;20464;-74
2022/06/06 02:42:50;;;;;;;7.50;4.35;;;17.00;99.90;;;;;;4936259;29;20035;-74
2022/06/06 02:45:17;;;;;;;10.57;4.32;;;17.10;99.90;;;;;;4936232;29;20024;-74
2022/06/06 02:47:51;;;;;;;9.57;4.60;;;17.10;99.90;;;;;;4936062;29;20078;-74
2022/06/06 02:50:20;;;;;;;5.88;4.35;;;17.10;99.90;;;;;;4931128;29;20084;-75
2022/06/06 02:52:45;;;;;;;7.90;4.25;;;17.10;99.90;;;;;;4918702;29;20550;-75
2022/06/06 02:55:13;;;;;;;8.23;4.47;;;16.90;99.90;;;;;;4936491;29;20114;-74
2022/06/06 02:57:44;;;;;;;7.13;4.00;;;16.80;99.90;;;;;;4935564;29;20517;-74
2022/06/06 03:00:14;;;;;;;7.53;4.13;;;16.70;99.90;;;;;;4935205;29;20027;-75
2022/06/06 03:02:40;;;;;;;5.38;3.97;;;16.70;99.90;;;;;;4934213;29;20043;-74
2022/06/06 03:05:08;;;;;;;7.43;4.35;;;16.80;99.90;;;;;;4928476;29;20028;-75
2022/06/06 03:07:58;;;;;;;7.30;4.15;;;16.70;99.90;;;;;;4917225;29;20392;-75
2022/06/06 03:10:32;;;;;;;6.95;3.72;;;16.60;99.90;;;;;;4916772;29;20084;-74
2022/06/06 03:13:14;;;;;;;10.05;4.53;;;16.60;99.90;;;;;;4916835;29;20416;-74
2022/06/06 03:22:18;;;;;;;5.93;4.03;;;16.70;99.90;;;;;;4876942;29;20108;-74
2022/06/06 03:24:56;;;;;;;6.72;3.92;;;16.80;99.90;;;;;;4877146;29;20080;-75
2022/06/06 03:27:25;;;;;;;8.45;4.55;;;16.80;99.90;;;;;;4873765;29;20046;-74
2022/06/06 03:30:13;;;;;;;7.90;4.25;;;16.80;99.90;;;;;;4858023;29;20108;-75
2022/06/06 03:32:57;;;;;;;9.00;3.80;;;16.70;99.90;;;;;;4863576;29;20120;-75
2022/06/06 03:35:32;;;;;;;9.55;4.10;;;16.70;99.90;;;;;;4876690;29;20064;-74
2022/06/06 03:38:17;;;;;;;9.43;4.07;;;16.60;99.90;;;;;;4875391;29;20505;-74
2022/06/06 03:41:07;;;;;;;8.95;4.47;;;16.70;99.90;;;;;;4858161;29;20156;-75
2022/06/06 03:44:02;;;;;;;8.05;4.43;;;16.50;99.90;;;;;;4858577;29;20339;-75
2022/06/06 03:46:54;;;;;;;5.78;3.67;;;16.50;99.90;;;;;;4857545;29;20044;-75
2022/06/06 03:49:40;;;;;;;7.35;3.95;;;16.50;99.90;;;;;;4858630;29;20030;-75
2022/06/06 03:52:19;;;;;;;9.38;4.35;;;16.40;99.90;;;;;;4861206;29;20038;-75
2022/06/06 03:55:02;;;;;;;9.20;4.47;;;16.30;99.90;;;;;;4861564;29;20502;-74
2022/06/06 03:57:28;;;;;;;5.43;3.92;;;16.30;99.90;;;;;;4861915;29;20065;-74
2022/06/06 04:00:00;;;;;;;7.40;4.00;;;16.40;99.90;;;;;;4915613;29;20094;-75
2022/06/06 04:02:28;;;;;;;;;;;16.20;99.90;;;;;;4939004;29;20063;-75
2022/06/06 04:04:58;;;;;;;5.72;4.40;;;16.30;99.90;;;;;;4939419;29;19906;-74
2022/06/06 04:07:24;;;;;;;9.05;4.25;;;16.30;99.90;;;;;;4938452;29;20055;-75
2022/06/06 04:09:52;;;;;;;8.63;4.55;;;16.20;99.90;;;;;;4938897;29;20062;-75
2022/06/06 04:12:37;;;;;;;5.85;3.90;;;16.30;99.90;;;;;;4938082;29;20506;-74
2022/06/06 04:15:33;;;;;;;6.60;4.28;;;16.30;99.90;;;;;;4937107;29;20043;-75
2022/06/06 04:18:04;;;;;;;6.93;4.40;;;16.20;99.90;;;;;;4938502;29;20543;-74
2022/06/06 04:20:38;;;;;;;7.07;3.70;;;16.20;99.90;;;;;;4938327;29;20028;-75
2022/06/06 04:23:45;;;;;;;8.30;3.95;;;16.30;99.90;;;;;;4939020;29;20034;-75
2022/06/06 04:26:26;;;;;;;8.75;3.95;;;16.40;99.90;;;;;;4900899;29;20369;-75
2022/06/06 04:29:05;;;;;;;6.78;4.50;;;16.40;99.90;;;;;;4938716;29;20099;-75
2022/06/06 04:31:30;;;;;;;8.10;4.15;;;16.40;99.90;;;;;;4936146;29;20035;-75
2022/06/06 04:34:09;;;;;;;9.05;4.60;;;16.40;99.90;;;;;;4937592;29;20023;-75
2022/06/06 04:36:44;;;;;;;11.13;4.60;;;16.40;99.90;;;;;;4938886;29;20132;-75
2022/06/06 04:39:34;;;;;;;8.20;3.88;;;16.50;99.90;;;;;;4938763;29;20102;-74
2022/06/06 04:42:04;;;;;;;11.07;4.05;;;16.50;99.90;;;;;;4938087;29;20078;-75
2022/06/06 04:44:48;;;;;;;8.80;4.32;;;16.60;99.90;;;;;;4938189;29;20028;-74
2022/06/06 04:47:24;;;;;;;6.53;4.03;;;16.50;99.90;;;;;;4936739;29;20476;-74
2022/06/06 04:49:51;;;;;;;6.43;4.03;;;16.50;99.90;;;;;;4936195;29;20039;-75
2022/06/06 04:52:19;;;;;;;7.72;4.63;;;16.60;99.90;;;;;;4938309;29;20038;-74
2022/06/06 04:54:46;;;;;;;6.43;4.25;;;16.50;99.90;;;;;;4938583;29;20171;-74
2022/06/06 04:57:14;;;;;;;7.32;4.60;;;16.60;99.90;;;;;;4938140;29;20035;-74
2022/06/06 04:59:41;;;;;;;9.68;3.83;;;16.60;99.90;;;;;;4937625;29;20030;-74
2022/06/06 05:02:07;;;;;;;6.05;4.15;;;16.70;99.90;;;;;;4937428;29;20032;-74
2022/06/06 05:04:33;;;;;;;6.38;4.32;;;16.70;99.90;;;;;;4937559;29;20034;-74
2022/06/06 05:07:22;;;;;;;8.05;3.90;;;16.70;99.90;;;;;;4937253;29;20027;-74
2022/06/06 05:10:00;;;;;;;20.58;8.57;;;16.70;99.90;;;;;;4937924;29;20472;-75
2022/06/06 05:12:51;;;;;;;187.80;50.22;;;16.80;99.90;;;;;;4933954;29;20123;-74
2022/06/06 05:15:50;;;;;;;199.55;54.83;;;16.90;99.90;;;;;;4919034;29;20035;-74
2022/06/06 05:19:01;;;;;;;99.88;28.60;;;16.90;99.90;;;;;;4926261;29;20043;-75
2022/06/06 05:21:53;;;;;;;48.78;16.85;;;17.00;99.90;;;;;;4918545;29;20039;-74
2022/06/06 05:24:39;;;;;;;37.47;13.55;;;17.00;99.90;;;;;;4919009;29;20492;-75
2022/06/06 05:27:25;;;;;;;20.98;9.60;;;17.10;99.90;;;;;;4860022;29;20049;-75
2022/06/06 05:29:57;;;;;;;21.52;9.88;;;17.10;99.90;;;;;;4859803;29;20073;-75
2022/06/06 05:32:57;;;;;;;15.00;7.13;;;17.20;99.90;;;;;;4867877;29;20100;-74
2022/06/06 05:35:47;;;;;;;13.38;6.90;;;17.30;99.90;;;;;;4878758;29;20040;-74
2022/06/06 05:38:31;;;;;;;12.70;6.25;;;17.30;99.90;;;;;;4878996;29;20552;-74
2022/06/06 05:41:33;;;;;;;8.15;5.68;;;17.40;99.90;;;;;;4878278;29;20040;-74
2022/06/06 05:44:15;;;;;;;10.67;6.67;;;17.40;99.90;;;;;;4878239;29;20045;-74
2022/06/06 05:46:57;;;;;;;10.82;6.60;;;17.50;99.90;;;;;;4876590;29;20024;-74
2022/06/06 05:49:32;;;;;;;8.90;5.95;;;17.50;99.90;;;;;;4880611;29;20548;-74
2022/06/06 05:52:09;;;;;;;14.68;5.82;;;17.50;99.90;;;;;;4886314;29;20044;-75
2022/06/06 05:55:09;;;;;;;11.68;5.90;;;17.70;99.90;;;;;;4878937;29;20493;-76
2022/06/06 05:57:51;;;;;;;10.30;5.93;;;18.10;99.90;;;;;;4880887;29;20033;-75
2022/06/06 06:00:21;;;;;;;10.85;6.03;;;18.20;99.90;;;;;;4867376;29;20111;-75
2022/06/06 06:03:01;;;;;;;12.48;5.53;;;18.30;99.90;;;;;;4868030;29;20517;-75
2022/06/06 06:05:36;;;;;;;8.80;5.53;;;18.40;99.90;;;;;;4918209;29;20034;-75
2022/06/06 06:08:07;;;;;;;8.73;5.50;;;18.50;99.90;;;;;;4923226;29;20054;-75
2022/06/06 06:10:44;;;;;;;12.15;5.50;;;18.50;99.90;;;;;;4936518;29;20040;-72
2022/06/06 06:13:28;;;;;;;11.85;6.00;;;18.20;99.90;;;;;;4928983;28;20035;-74
2022/06/06 06:15:58;;;;;;;8.80;4.80;;;18.10;99.90;;;;;;4931211;28;20027;-76
2022/06/06 06:18:44;;;;;;;15.05;5.28;;;18.20;99.90;;;;;;4922315;29;20099;-76
2022/06/06 06:21:14;;;;;;;8.32;4.30;;;18.40;99.90;;;;;;4935037;29;20034;-76
2022/06/06 06:23:48;;;;;;;7.50;4.53;;;18.50;99.90;;;;;;4936737;29;20638;-75
2022/06/06 06:26:14;;;;;;;10.43;4.88;;;18.60;99.90;;;;;;4936321;29;20024;-75
2022/06/06 06:28:43;;;;;;;7.13;4.13;;;18.70;99.90;;;;;;4935678;29;20056;-75
2022/06/06 06:31:25;;;;;;;7.45;4.03;;;18.70;99.90;;;;;;4936461;29;20039;-75
2022/06/06 06:34:29;;;;;;;9.35;4.75;;;18.60;99.90;;;;;;4936625;29;20032;-76
2022/06/06 06:37:14;;;;;;;9.20;4.25;;;18.80;99.90;;;;;;4935701;29;20055;-76
2022/06/06 06:39:52;;;;;;;8.77;4.20;;;18.80;99.90;;;;;;4936256;29;20058;-75
2022/06/06 06:42:47;;;;;;;13.27;4.45;;;18.80;99.90;;;;;;4936305;29;20520;-75
2022/06/06 06:45:33;;;;;;;8.52;4.40;;;18.90;99.90;;;;;;4923991;29;20039;-75
2022/06/06 06:48:08;;;;;;;9.02;4.72;;;18.80;99.90;;;;;;4936042;29;20020;-75
2022/06/06 06:50:42;;;;;;;9.52;3.97;;;18.80;99.90;;;;;;4936280;29;20423;-75
2022/06/06 06:53:13;;;;;;;8.35;4.13;;;18.90;99.90;;;;;;4936391;29;20028;-75
2022/06/06 06:55:42;;;;;;;;;;;19.00;99.90;;;;;;4935445;29;20051;-75
2022/06/06 06:58:33;;;;;;;9.25;4.43;;;19.00;99.90;;;;;;4936295;29;19906;-75
2022/06/06 07:01:06;;;;;;;9.98;4.53;;;19.10;99.90;;;;;;4935836;29;20052;-75
2022/06/06 07:09:52;;;;;;;7.57;4.32;;;19.20;99.90;;;;;;4924516;29;20042;-73
2022/06/06 07:12:46;;;;;;;7.00;3.40;;;19.40;99.90;;;;;;4935628;29;20027;-73
2022/06/06 07:15:38;;;;;;;8.48;3.80;;;19.60;99.90;;;;;;4917001;29;20496;-73
2022/06/06 07:18:06;;;;;;;15.27;4.93;;;19.50;99.90;;;;;;4920183;29;20023;-72
2022/06/06 07:20:35;;;;;;;9.05;3.80;;;19.60;99.90;;;;;;4924838;29;20558;-72
2022/06/06 07:23:08;;;;;;;8.57;4.03;;;19.60;99.90;;;;;;4925486;29;20024;-72
2022/06/06 07:25:38;;;;;;;9.25;5.55;;;19.60;99.90;;;;;;4916052;29;20036;-72
2022/06/06 07:28:06;;;;;;;128.35;78.25;;;19.70;99.90;;;;;;4925207;29;20046;-72
2022/06/06 07:30:37;;;;;;;9.23;4.25;;;19.80;99.90;;;;;;4937395;29;20046;-73
2022/06/06 07:33:35;;;;;;;68.95;43.95;;;19.80;99.90;;;;;;4928836;29;20035;-72
2022/06/06 07:36:12;;;;;;;12.50;5.43;;;19.90;99.90;;;;;;4919597;29;20055;-72
2022/06/06 07:39:15;;;;;;;50.80;37.20;;;19.90;99.90;;;;;;4926662;29;20052;-72
2022/06/06 07:41:59;;;;;;;6.13;4.43;;;20.00;99.90;;;;;;4932893;29;20019;-72
2022/06/06 07:44:31;;;;;;;23.52;16.50;;;20.10;99.90;;;;;;4954594;29;20027;-75
2022/06/06 07:47:07;;;;;;;10.80;4.32;;;20.10;99.90;;;;;;4938878;29;20032;-74
2022/06/06 07:49:46;;;;;;;11.52;4.43;;;20.30;99.90;;;;;;4954536;29;20032;-73
2022/06/06 07:52:11;;;;;;;11.10;4.07;;;20.30;99.90;;;;;;4930496;29;20033;-74
2022/06/06 07:54:58;;;;;;;9.23;4.70;;;20.40;99.90;;;;;;4915675;29;20039;-73
2022/06/06 07:57:51;;;;;;;8.05;4.40;;;20.40;99.90;;;;;;4917146;29;20028;-75
2022/06/06 08:00:22;;;;;;;7.95;3.33;;;20.30;99.90;;;;;;4927590;29;20038;-74
2022/06/06 08:03:17;;;;;;;;;;;20.60;99.90;;;;;;4949427;29;20090;-74
2022/06/06 08:06:04;;;;;;;7.30;2.85;;;20.70;99.90;;;;;;4941366;29;20402;-74
2022/06/06 08:09:06;;;;;;;6.75;3.40;;;20.80;99.90;;;;;;4931540;29;20123;-75
2022/06/06 08:11:44;;;;;;;7.82;3.15;;;20.90;99.90;;;;;;4945723;29;20031;-75
2022/06/06 08:14:35;;;;;;;11.77;3.05;;;21.10;99.90;;;;;;4931288;29;20038;-75
2022/06/06 08:17:24;;;;;;;6.83;2.70;;;21.20;99.90;;;;;;4860501;29;20406;-74
2022/06/06 08:20:02;;;;;;;9.25;3.28;;;21.40;99.90;;;;;;4857969;29;20101;-74
2022/06/06 08:22:29;;;;;;;5.57;3.08;;;21.70;99.90;;;;;;4842067;29;20471;-75
2022/06/06 08:25:01;;;;;;;4.18;2.15;;;21.80;99.90;;;;;;4857905;29;20037;-75
2022/06/06 08:27:28;;;;;;;7.10;2.40;;;22.00;99.90;;;;;;4857989;29;20052;-74
2022/06/06 08:29:54;;;;;;;9.30;3.00;;;22.20;99.90;;;;;;4858055;29;20565;-74
2022/06/06 08:32:21;;;;;;;13.35;2.95;;;22.40;99.90;;;;;;4857383;29;20041;-74
2022/06/06 08:34:48;;;;;;;9.88;2.80;;;22.60;99.90;;;;;;4857798;29;20038;-74
2022/06/06 08:37:35;;;;;;;5.30;2.47;;;22.80;99.90;;;;;;4857739;29;20423;-74
2022/06/06 08:40:30;;;;;;;12.15;2.60;;;23.00;99.90;;;;;;4860746;29;21737;-74
2022/06/06 08:43:15;;;;;;;5.03;2.47;;;23.20;99.90;;;;;;4861424;29;20542;-74
2022/06/06 08:46:04;;;;;;;8.70;2.70;;;23.60;99.90;;;;;;4861005;29;20546;-74
2022/06/06 08:48:52;;;;;;;5.35;2.65;;;23.90;99.90;;;;;;4860726;29;20045;-75
2022/06/06 08:51:47;;;;;;;7.97;2.67;;;24.10;99.30;;;;;;4861065;29;20450;-77
2022/06/06 08:54:44;;;;;;;6.68;2.88;;;24.20;98.70;;;;;;4909849;29;20052;-75
2022/06/06 08:57:18;;;;;;;5.95;2.80;;;24.40;98.50;;;;;;4928345;29;20111;-75
2022/06/06 08:59:49;;;;;;;5.45;2.60;;;24.60;97.60;;;;;;4922883;29;20480;-74
2022/06/06 09:02:46;;;;;;;4.93;2.13;;;24.70;97.10;;;;;;4938313;29;20111;-74
2022/06/06 09:06:04;;;;;;;7.18;2.45;;;24.90;96.40;;;;;;4938029;29;20452;-75
2022/06/06 09:08:39;;;;;;;6.15;2.70;;;25.10;95.80;;;;;;4879289;29;20064;-74
2022/06/06 09:11:29;;;;;;;6.50;2.20;;;25.40;94.80;;;;;;4881794;29;20040;-75
2022/06/06 09:14:14;;;;;;;5.78;2.38;;;25.40;94.40;;;;;;4898034;29;20032;-74
2022/06/06 09:16:48;;;;;;;4.65;2.53;;;25.40;93.90;;;;;;4884670;29;20513;-75
2022/06/06 09:19:35;;;;;;;9.57;2.95;;;25.60;93.80;;;;;;4874997;29;20040;-75
2022/06/06 09:22:14;;;;;;;6.70;2.47;;;25.90;94.00;;;;;;4896206;29;20039;-74
2022/06/06 09:25:10;;;;;;;5.55;2.70;;;26.20;93.20;;;;;;4872371;29;20030;-74
2022/06/06 09:28:11;;;;;;;4.68;2.50;;;26.30;92.20;;;;;;4860437;29;20045;-74
2022/06/06 09:31:18;;;;;;;4.50;2.20;;;26.30;91.60;;;;;;4884224;29;20041;-74
2022/06/06 09:34:04;;;;;;;6.03;2.38;;;26.40;91.80;;;;;;4884784;29;20056;-74
2022/06/06 09:36:57;;;;;;;43.10;28.20;;;26.40;90.80;;;;;;4894799;29;20050;-75
2022/06/06 09:40:01;;;;;;;20.52;10.90;;;26.80;91.40;;;;;;4879910;29;20032;-74
2022/06/06 09:42:46;;;;;;;9.88;3.65;;;26.80;91.00;;;;;;4911768;29;20704;-74
2022/06/06 09:45:12;;;;;;;5.93;2.70;;;26.90;90.80;;;;;;4942314;29;20055;-74
2022/06/06 09:48:00;;;;;;;5.78;2.67;;;26.80;90.20;;;;;;4940040;29;20491;-75
2022/06/06 09:50:57;;;;;;;29.48;22.00;;;26.90;88.90;;;;;;4934959;29;20031;-73
2022/06/06 09:53:44;;;;;;;6.25;2.45;;;27.20;90.60;;;;;;4936373;29;20023;-75
2022/06/06 09:59:03;;;;;;;4.13;2.25;;;27.10;87.90;;;;;;4935775;29;20122;-75
2022/06/06 10:02:06;;;;;;;4.70;2.60;;;27.50;87.70;;;;;;4935797;29;20087;-74
2022/06/06 10:04:54;;;;;;;5.38;2.35;;;27.60;87.30;;;;;;4935127;29;20031;-74
2022/06/06 10:08:00;;;;;;;5.38;2.22;;;27.70;85.10;;;;;;4935282;29;20028;-74
2022/06/06 10:10:38;;;;;;;7.22;2.20;;;27.90;85.60;;;;;;4935485;29;20077;-75
2022/06/06 10:13:14;;;;;;;5.10;2.40;;;28.00;85.90;;;;;;4934983;29;20055;-75
2022/06/06 10:15:40;;;;;;;7.05;2.65;;;27.80;84.10;;;;;;4936113;29;20027;-74
2022/06/06 10:18:40;;;;;;;5.60;2.13;;;27.70;84.30;;;;;;4931177;29;20040;-72
2022/06/06 10:21:35;;;;;;;3.30;1.90;;;27.10;83.00;;;;;;4935452;29;20027;-75
2022/06/06 10:24:12;;;;;;;4.38;2.50;;;27.50;84.30;;;;;;4935956;29;20507;-74
2022/06/06 10:26:51;;;;;;;4.07;2.00;;;27.70;82.30;;;;;;4933280;29;20098;-74
2022/06/06 10:32:56;;;;;;;4.35;2.20;;;27.20;82.30;;;;;;4934171;29;20452;-75
2022/06/06 10:35:59;;;;;;;6.85;2.40;;;27.80;81.90;;;;;;4927592;29;20504;-74
2022/06/06 10:38:44;;;;;;;5.10;2.38;;;28.00;81.70;;;;;;4932278;29;20019;-74
2022/06/06 10:41:15;;;;;;;9.00;2.42;;;28.00;81.60;;;;;;4938510;29;20015;-73
2022/06/06 10:43:47;;;;;;;5.38;2.22;;;28.20;81.70;;;;;;4936768;29;20035;-73
2022/06/06 10:46:30;;;;;;;;;;;27.60;79.00;;;;;;4934831;29;20032;-73
2022/06/06 10:49:31;;;;;;;4.70;2.03;;;27.90;82.10;;;;;;4933041;29;19911;-74
2022/06/06 10:52:03;;;;;;;6.57;2.28;;;27.90;79.90;;;;;;4935911;29;20078;-73
2022/06/06 10:54:56;;;;;;;13.88;7.80;;;28.00;80.10;;;;;;4938446;29;20046;-74
2022/06/06 10:57:52;;;;;;;9.13;5.43;;;27.80;80.30;;;;;;4938491;29;20032;-75
2022/06/06 11:00:39;;;;;;;5.65;3.13;;;28.50;80.30;;;;;;4934732;28;20030;-74
2022/06/06 11:03:23;;;;;;;6.45;3.63;;;28.90;77.30;;;;;;4934481;29;20015;-74
2022/06/06 11:06:06;;;;;;;6.88;2.47;;;29.20;77.60;;;;;;4933576;29;20043;-74
2022/06/06 11:08:55;;;;;;;5.13;2.13;;;29.00;77.40;;;;;;4934234;29;20038;-75
2022/06/06 11:11:21;;;;;;;6.72;2.20;;;28.50;78.00;;;;;;4933140;29;20035;-74
2022/06/06 11:13:55;;;;;;;6.13;3.67;;;28.60;77.50;;;;;;4934609;29;20038;-75
2022/06/06 11:17:08;;;;;;;7.18;2.45;;;28.70;77.80;;;;;;4934430;29;20027;-74
2022/06/06 11:19:56;;;;;;;6.80;3.35;;;28.80;76.80;;;;;;4890561;29;20568;-75
2022/06/06 11:22:31;;;;;;;3.65;2.28;;;28.80;77.50;;;;;;4889330;29;20045;-75
2022/06/06 11:25:14;;;;;;;5.93;2.45;;;29.10;75.80;;;;;;4890942;29;20029;-75
2022/06/06 11:28:17;;;;;;;7.07;2.53;;;29.00;76.10;;;;;;4890547;29;20513;-75
2022/06/06 11:31:02;;;;;;;8.02;2.55;;;28.90;75.60;;;;;;4891020;29;20056;-75
2022/06/06 11:33:49;;;;;;;3.60;2.15;;;29.10;74.10;;;;;;4892799;29;20078;-75
2022/06/06 11:36:17;;;;;;;6.32;2.30;;;29.30;73.20;;;;;;4892440;29;20028;-75
2022/06/06 11:38:46;;;;;;;3.45;2.20;;;29.60;74.10;;;;;;4891497;29;20089;-75
2022/06/06 11:41:30;;;;;;;7.00;2.30;;;29.60;73.30;;;;;;4891173;29;20412;-75
2022/06/06 11:44:23;;;;;;;10.13;5.43;;;29.70;73.30;;;;;;4890465;29;20601;-75
2022/06/06 11:47:04;;;;;;;5.38;2.13;;;29.70;72.80;;;;;;4893227;29;20048;-75
2022/06/06 11:50:09;;;;;;;5.15;2.42;;;29.30;72.60;;;;;;4889576;29;20033;-75
2022/06/06 11:53:12;;;;;;;5.65;1.90;;;29.40;73.90;;;;;;4894852;29;20030;-75
2022/06/06 11:56:10;;;;;;;3.28;2.33;;;29.80;73.00;;;;;;4933994;29;20032;-76
2022/06/06 11:58:58;;;;;;;3.47;2.10;;;29.60;72.10;;;;;;4934709;29;20035;-74
2022/06/06 12:01:55;;;;;;;3.47;2.22;;;29.60;70.80;;;;;;4934259;29;20042;-75
2022/06/06 12:04:30;;;;;;;3.00;2.17;;;29.80;71.70;;;;;;4880247;29;20466;-75
2022/06/06 12:07:37;;;;;;;4.50;2.13;;;29.50;71.30;;;;;;4875522;29;20037;-74
2022/06/06 12:10:23;;;;;;;4.43;2.03;;;29.40;70.30;;;;;;4881648;29;20040;-75
2022/06/06 12:13:12;;;;;;;35.78;19.88;;;29.50;72.60;;;;;;4879872;29;20107;-75
2022/06/06 12:15:58;;;;;;;4.82;2.45;;;30.10;71.60;;;;;;4880903;29;20049;-76
2022/06/06 12:18:29;;;;;;;6.07;3.50;;;30.20;70.90;;;;;;4880020;29;20034;-75
2022/06/06 12:21:26;;;;;;;5.07;2.38;;;29.90;71.10;;;;;;4881177;29;20104;-75
2022/06/06 12:24:18;;;;;;;4.38;2.13;;;29.80;69.00;;;;;;4886072;29;20032;-75
2022/06/06 12:27:04;;;;;;;5.07;2.13;;;29.80;68.90;;;;;;4879407;29;20548;-75
2022/06/06 12:30:01;;;;;;;7.10;1.98;;;30.00;67.00;;;;;;4879335;29;20454;-75
2022/06/06 12:32:45;;;;;;;9.32;2.40;;;29.40;66.60;;;;;;4878996;29;20037;-76
2022/06/06 12:35:18;;;;;;;5.00;2.47;;;29.80;69.20;;;;;;4876504;29;20037;-75
2022/06/06 12:37:55;;;;;;;6.95;2.03;;;29.90;67.60;;;;;;4877596;29;20452;-75
2022/06/06 12:40:27;;;;;;;4.75;2.22;;;29.90;68.50;;;;;;4873148;29;20040;-75
2022/06/06 12:43:04;;;;;;;5.07;2.13;;;30.10;67.90;;;;;;4923763;29;20417;-76
2022/06/06 12:45:38;;;;;;;5.65;2.00;;;29.60;67.30;;;;;;4911102;29;20024;-75
2022/06/06 12:48:37;;;;;;;4.43;1.85;;;29.90;67.50;;;;;;4923357;29;20039;-76
2022/06/06 12:51:14;;;;;;;3.63;1.77;;;30.00;66.90;;;;;;4920186;29;20025;-75
2022/06/06 12:54:01;;;;;;;4.18;2.05;;;30.40;67.90;;;;;;4900384;29;20072;-75
2022/06/06 12:56:50;;;;;;;16.42;2.75;;;29.70;65.90;;;;;;4927953;29;20032;-75
2022/06/06 12:59:17;;;;;;;3.83;1.85;;;29.60;65.30;;;;;;4938403;29;20465;-75
2022/06/06 13:02:01;;;;;;;7.68;2.08;;;29.70;66.70;;;;;;4931523;29;20376;-75
2022/06/06 13:04:45;;;;;;;5.35;2.10;;;29.80;65.90;;;;;;4918675;29;20084;-75
2022/06/06 13:07:25;;;;;;;3.70;1.88;;;29.80;67.00;;;;;;4916235;29;20021;-75
2022/06/06 13:10:12;;;;;;;130.63;11.10;;;30.20;66.00;;;;;;4923115;29;20028;-76
2022/06/06 13:13:16;;;;;;;3.55;1.63;;;29.80;66.30;;;;;;4900400;29;20388;-76
2022/06/06 13:16:13;;;;;;;16.02;2.95;;;29.60;66.20;;;;;;4860251;29;20037;-76
2022/06/06 13:18:55;;;;;;;6.72;2.17;;;29.50;66.90;;;;;;4871569;29;20037;-76
2022/06/06 13:21:42;;;;;;;5.20;1.95;;;29.10;67.40;;;;;;4869375;29;20585;-75
2022/06/06 13:24:07;;;;;;;4.53;1.88;;;28.60;67.50;;;;;;4871018;29;20763;-75
2022/06/06 13:26:48;;;;;;;3.67;1.88;;;28.60;69.70;;;;;;4872019;29;20045;-75
2022/06/06 13:29:23;;;;;;;5.13;1.92;;;28.50;68.00;;;;;;4870135;29;20124;-75
2022/06/06 13:31:53;;;;;;;5.43;2.03;;;28.40;68.70;;;;;;4867558;29;20049;-75
2022/06/06 13:35:00;;;;;;;41.05;5.07;;;28.40;68.50;;;;;;4873643;29;20476;-74
2022/06/06 13:37:47;;;;;;;4.35;1.92;;;28.40;70.10;;;;;;4878586;29;20052;-75
2022/06/06 13:40:32;;;;;;;6.45;1.90;;;28.20;70.20;;;;;;4878741;29;20036;-75
2022/06/06 13:43:32;;;;;;;5.45;1.88;;;28.20;70.00;;;;;;4878725;29;20116;-75
2022/06/06 13:46:13;;;;;;;7.05;2.25;;;28.20;70.30;;;;;;4878937;29;20033;-75
2022/06/06 13:48:53;;;;;;;26.77;14.60;;;28.20;69.60;;;;;;4878317;29;20033;-75
2022/06/06 13:51:37;;;;;;;6.07;2.35;;;28.10;70.70;;;;;;4889635;29;20097;-75
2022/06/06 13:54:02;;;;;;;4.95;2.72;;;28.30;71.40;;;;;;4915051;29;20044;-76
2022/06/06 13:56:58;;;;;;;6.20;2.13;;;28.40;70.00;;;;;;4917657;29;20096;-75
2022/06/06 13:59:43;;;;;;;4.60;2.13;;;28.60;70.70;;;;;;4918145;29;20473;-76
2022/06/06 14:02:17;;;;;;;3.22;1.95;;;29.00;69.60;;;;;;4918339;29;20057;-76
2022/06/06 14:04:51;;;;;;;3.03;1.95;;;29.30;69.70;;;;;;4917667;29;20028;-76
2022/06/06 14:07:48;;;;;;;6.38;2.50;;;29.50;68.40;;;;;;4917415;29;20111;-76
2022/06/06 14:10:18;;;;;;;7.15;2.30;;;29.40;68.60;;;;;;4917269;29;20457;-76
2022/06/06 14:13:11;;;;;;;5.75;2.22;;;29.40;67.90;;;;;;4918043;29;20099;-76
2022/06/06 14:15:47;;;;;;;3.53;2.10;;;29.50;68.10;;;;;;4915215;29;20127;-75